Time;durP1;ratioP1;P1;durP2;ratioP2;P2;SDS_P1;SDS_P2;PMS_P1;PMS_P2;Temp;Humidity;BMP_temperature;BMP_pressure;BME280_temperature;BME280_humidity;BME280_pressure;Samples;Min_cycle;Max_cycle;Signal;HPM_P1;HPM_P2
2022/06/26 00:01:46;;;;;;;18.10;12.00;;;16.10;99.90;;;;;;5040411;28;39153;-76
2022/06/26 00:04:12;;;;;;;16.83;11.65;;;16.10;99.90;;;;;;5044006;28;38422;-77
2022/06/26 00:06:38;;;;;;;23.42;15.40;;;16.00;99.90;;;;;;5041896;28;37627;-77
2022/06/26 00:09:05;;;;;;;21.05;15.13;;;16.00;99.90;;;;;;5043750;28;39184;-77
2022/06/26 00:11:31;;;;;;;23.40;16.48;;;16.00;99.90;;;;;;5040667;28;38479;-77
2022/06/26 00:13:57;;;;;;;25.77;16.75;;;15.90;99.90;;;;;;5044670;28;38880;-77
2022/06/26 00:16:24;;;;;;;22.73;17.10;;;15.90;99.90;;;;;;5038351;28;38645;-77
2022/06/26 00:18:50;;;;;;;24.90;19.23;;;15.90;99.90;;;;;;5037669;28;39112;-77
2022/06/26 00:21:16;;;;;;;29.30;21.05;;;15.90;99.90;;;;;;5040126;28;40513;-77
2022/06/26 00:23:42;;;;;;;27.70;20.73;;;15.90;99.90;;;;;;5038854;28;37460;-77
2022/06/26 00:26:08;;;;;;;29.77;20.90;;;15.90;99.90;;;;;;5033546;28;39255;-77
2022/06/26 00:28:34;;;;;;;26.25;20.02;;;15.90;99.90;;;;;;5057078;27;40598;-77
2022/06/26 00:31:01;;;;;;;33.65;22.33;;;15.80;99.90;;;;;;5044411;28;38412;-77
2022/06/26 00:33:27;;;;;;;28.45;22.85;;;15.80;99.90;;;;;;5050920;28;46670;-77
2022/06/26 00:35:54;;;;;;;37.78;27.25;;;15.80;99.90;;;;;;5058200;28;39691;-77
2022/06/26 00:38:20;;;;;;;28.15;20.98;;;15.80;99.90;;;;;;5061703;27;40325;-77
2022/06/26 00:40:46;;;;;;;30.30;23.00;;;15.80;99.90;;;;;;5055687;27;39027;-77
2022/06/26 00:43:12;;;;;;;28.58;22.85;;;15.80;99.90;;;;;;5052096;27;38015;-77
2022/06/26 00:45:38;;;;;;;30.08;23.63;;;15.80;99.90;;;;;;5053190;28;39785;-77
2022/06/26 00:48:05;;;;;;;32.00;24.27;;;15.80;99.90;;;;;;5055401;28;39063;-77
2022/06/26 00:50:31;;;;;;;29.70;23.30;;;15.90;99.90;;;;;;5062849;27;38602;-77
2022/06/26 00:52:57;;;;;;;27.15;22.55;;;15.90;99.90;;;;;;5057281;28;38835;-77
2022/06/26 00:55:23;;;;;;;31.30;22.85;;;15.90;99.90;;;;;;5058834;28;38976;-77
2022/06/26 00:57:50;;;;;;;34.08;26.20;;;15.90;99.90;;;;;;5059720;28;39649;-79
2022/06/26 01:00:20;;;;;;;28.45;22.27;;;15.90;99.90;;;;;;5038626;28;38669;-76
2022/06/26 01:02:46;;;;;;;37.60;24.35;;;15.90;99.90;;;;;;5046646;28;36509;-77
2022/06/26 01:05:13;;;;;;;26.05;20.80;;;15.90;99.90;;;;;;5047996;28;39756;-78
2022/06/26 01:07:42;;;;;;;26.52;20.63;;;15.80;99.90;;;;;;5061718;27;39297;-77
2022/06/26 01:10:09;;;;;;;29.05;22.20;;;15.80;99.90;;;;;;5070290;27;37512;-77
2022/06/26 01:12:35;;;;;;;25.42;19.80;;;15.80;99.90;;;;;;5066385;27;37611;-77
2022/06/26 01:15:05;;;;;;;24.77;20.02;;;15.70;99.90;;;;;;5066903;28;37683;-77
2022/06/26 01:17:31;;;;;;;24.25;19.65;;;15.70;99.90;;;;;;5068097;28;47746;-77
2022/06/26 01:19:58;;;;;;;24.60;19.08;;;15.60;99.90;;;;;;5066478;28;38178;-77
2022/06/26 01:22:28;;;;;;;25.77;19.10;;;15.60;99.90;;;;;;5064906;28;37300;-77
2022/06/26 01:24:55;;;;;;;29.55;19.77;;;15.60;99.90;;;;;;5066136;28;37187;-77
2022/06/26 01:27:21;;;;;;;29.38;20.52;;;15.60;99.90;;;;;;5068779;27;38990;-77
2022/06/26 01:29:47;;;;;;;26.08;18.58;;;15.50;99.90;;;;;;5065308;27;39101;-77
2022/06/26 01:32:13;;;;;;;29.08;19.80;;;15.50;99.90;;;;;;5063032;27;38258;-77
2022/06/26 01:34:40;;;;;;;23.45;20.00;;;15.50;99.90;;;;;;5062504;27;39393;-77
2022/06/26 01:37:06;;;;;;;23.85;18.35;;;15.50;99.90;;;;;;5066099;27;39233;-77
2022/06/26 01:39:32;;;;;;;21.55;18.08;;;15.50;99.90;;;;;;5057937;27;39473;-77
2022/06/26 01:41:58;;;;;;;28.13;19.50;;;15.50;99.90;;;;;;5055617;28;37591;-77
2022/06/26 01:44:24;;;;;;;29.52;20.42;;;15.50;99.90;;;;;;5091015;28;40201;-77
2022/06/26 01:46:50;;;;;;;26.15;17.98;;;15.40;99.90;;;;;;5042787;28;37915;-77
2022/06/26 01:49:16;;;;;;;21.90;16.75;;;15.40;99.90;;;;;;5046243;28;40425;-77
2022/06/26 01:51:43;;;;;;;23.63;15.88;;;15.40;99.90;;;;;;5044157;28;38465;-77
2022/06/26 01:54:09;;;;;;;21.73;15.80;;;15.40;99.90;;;;;;5055444;28;38130;-77
2022/06/26 01:56:35;;;;;;;23.13;16.13;;;15.30;99.90;;;;;;5046580;28;40049;-78
2022/06/26 01:59:01;;;;;;;27.45;16.98;;;15.30;99.90;;;;;;5040902;28;39195;-77
2022/06/26 02:01:28;;;;;;;21.58;15.20;;;15.30;99.90;;;;;;5058528;28;46608;-77
2022/06/26 02:03:54;;;;;;;33.00;17.23;;;15.30;99.90;;;;;;5062992;27;38991;-78
2022/06/26 02:06:20;;;;;;;21.38;15.13;;;15.30;99.90;;;;;;5067724;27;40442;-77
2022/06/26 02:08:46;;;;;;;27.25;15.30;;;15.30;99.90;;;;;;5068440;27;38328;-77
2022/06/26 02:13:57;;;;;;;21.83;15.10;;;15.20;99.90;;;;;;5046333;28;40344;-77
2022/06/26 02:16:28;;;;;;;24.85;15.90;;;15.20;99.90;;;;;;5039627;28;38976;-77
2022/06/26 02:18:57;;;;;;;23.83;15.05;;;15.20;99.90;;;;;;5043949;28;38649;-77
2022/06/26 02:21:27;;;;;;;29.10;16.05;;;15.10;99.90;;;;;;5041952;28;37945;-77
2022/06/26 02:23:54;;;;;;;29.15;17.70;;;15.20;99.90;;;;;;5041172;28;38859;-77
2022/06/26 02:26:21;;;;;;;27.25;14.80;;;15.10;99.90;;;;;;5041628;28;38975;-77
2022/06/26 02:28:48;;;;;;;31.50;17.35;;;15.20;99.90;;;;;;5036743;28;39552;-77
2022/06/26 02:31:14;;;;;;;32.35;16.58;;;15.10;99.90;;;;;;5059194;28;38315;-77
2022/06/26 02:33:40;;;;;;;37.58;17.95;;;15.10;99.90;;;;;;5041659;28;39732;-77
2022/06/26 02:36:08;;;;;;;34.28;15.77;;;15.10;99.90;;;;;;5041377;28;39463;-77
2022/06/26 02:38:35;;;;;;;31.77;17.00;;;15.00;99.90;;;;;;5077186;27;39698;-76
2022/06/26 02:41:02;;;;;;;36.88;17.70;;;15.10;99.90;;;;;;5044574;28;36780;-77
2022/06/26 02:43:28;;;;;;;28.25;15.00;;;15.10;99.90;;;;;;5045754;28;39262;-76
2022/06/26 02:45:55;;;;;;;34.15;15.88;;;15.00;99.90;;;;;;5040490;28;38609;-76
2022/06/26 02:48:21;;;;;;;31.80;16.77;;;15.00;99.90;;;;;;5039775;28;38703;-76
2022/06/26 02:50:48;;;;;;;31.40;15.38;;;15.00;99.90;;;;;;5040566;28;36661;-77
2022/06/26 02:53:15;;;;;;;32.58;16.40;;;15.00;99.90;;;;;;5060059;28;41255;-76
2022/06/26 02:55:42;;;;;;;34.53;15.90;;;14.90;99.90;;;;;;5043647;28;40264;-76
2022/06/26 02:58:08;;;;;;;34.03;15.93;;;14.90;99.90;;;;;;5042772;28;39160;-76
2022/06/26 03:00:34;;;;;;;28.20;14.32;;;14.90;99.90;;;;;;5039728;28;38022;-76
2022/06/26 03:03:01;;;;;;;30.85;16.75;;;14.90;99.90;;;;;;5044227;28;39758;-75
2022/06/26 03:05:29;;;;;;;33.85;16.92;;;14.90;99.90;;;;;;5062019;28;46959;-76
2022/06/26 03:07:56;;;;;;;29.80;15.70;;;14.90;99.90;;;;;;5051704;28;38700;-76
2022/06/26 03:10:23;;;;;;;25.63;15.35;;;14.80;99.90;;;;;;5062187;28;36509;-76
2022/06/26 03:12:50;;;;;;;31.83;17.00;;;14.80;99.90;;;;;;5064286;27;39571;-76
2022/06/26 03:15:18;;;;;;;30.80;15.00;;;14.80;99.90;;;;;;5076356;28;38371;-76
2022/06/26 03:17:44;;;;;;;31.23;16.67;;;14.80;99.90;;;;;;5065311;28;38610;-77
2022/06/26 03:20:14;;;;;;;30.38;16.15;;;14.80;99.90;;;;;;5064789;27;36453;-76
2022/06/26 03:22:40;;;;;;;27.95;15.30;;;14.80;99.90;;;;;;5057662;27;38676;-76
2022/06/26 03:25:07;;;;;;;25.45;14.80;;;14.80;99.90;;;;;;5039192;28;39373;-77
2022/06/26 03:27:33;;;;;;;30.30;15.20;;;14.80;99.90;;;;;;5039797;28;39719;-76
2022/06/26 03:30:00;;;;;;;41.97;17.67;;;14.80;99.90;;;;;;5035033;28;39420;-76
2022/06/26 03:32:26;;;;;;;33.80;17.05;;;14.80;99.90;;;;;;5043627;28;39799;-76
2022/06/26 03:34:52;;;;;;;29.25;15.55;;;14.80;99.90;;;;;;5048420;28;37947;-76
2022/06/26 03:37:19;;;;;;;23.45;15.07;;;14.80;99.90;;;;;;5051175;27;38335;-76
2022/06/26 03:39:45;;;;;;;30.50;15.50;;;14.80;99.90;;;;;;5045393;28;37235;-76
2022/06/26 03:42:11;;;;;;;32.83;16.30;;;14.80;99.90;;;;;;5050947;27;40134;-77
2022/06/26 03:44:37;;;;;;;29.20;15.25;;;14.80;99.90;;;;;;5045804;27;37289;-76
2022/06/26 03:47:04;;;;;;;28.27;15.50;;;14.80;99.90;;;;;;5052380;27;37927;-77
2022/06/26 03:49:30;;;;;;;32.67;15.88;;;14.80;99.90;;;;;;5062284;27;38554;-77
2022/06/26 03:51:56;;;;;;;27.25;14.07;;;14.80;99.90;;;;;;5058495;27;39370;-77
2022/06/26 03:54:25;;;;;;;31.23;14.00;;;14.80;99.90;;;;;;5082460;27;40524;-77
2022/06/26 03:56:51;;;;;;;24.17;13.48;;;14.80;99.90;;;;;;5055543;28;38990;-77
2022/06/26 03:59:17;;;;;;;30.95;13.85;;;14.80;99.90;;;;;;5095436;27;38378;-76
2022/06/26 04:01:43;;;;;;;18.52;11.82;;;14.80;99.90;;;;;;5059809;28;39033;-77
2022/06/26 04:04:09;;;;;;;23.50;11.85;;;14.90;99.90;;;;;;5061081;27;38944;-76
2022/06/26 04:06:36;;;;;;;21.63;9.45;;;14.90;99.90;;;;;;5057121;28;40031;-76
2022/06/26 04:09:03;;;;;;;21.38;11.20;;;14.90;99.90;;;;;;5062024;28;39940;-77
2022/06/26 04:11:29;;;;;;;19.52;10.82;;;15.00;99.90;;;;;;5063638;28;40429;-76
2022/06/26 04:13:56;;;;;;;20.15;10.73;;;15.00;99.90;;;;;;5060020;27;39611;-77
2022/06/26 04:16:22;;;;;;;18.33;9.75;;;15.00;99.90;;;;;;5049851;27;39667;-77
2022/06/26 04:18:48;;;;;;;18.23;10.50;;;15.00;99.90;;;;;;5045574;28;37006;-77
2022/06/26 04:21:14;;;;;;;15.73;9.18;;;15.10;99.90;;;;;;5048568;27;39391;-77
2022/06/26 04:23:40;;;;;;;18.58;9.70;;;15.10;99.90;;;;;;5062545;28;37739;-77
2022/06/26 04:26:06;;;;;;;20.20;9.68;;;15.20;99.90;;;;;;5058650;28;39685;-77
2022/06/26 04:28:33;;;;;;;16.60;8.63;;;15.20;99.90;;;;;;5050712;28;37908;-76
2022/06/26 04:30:59;;;;;;;20.80;9.93;;;15.30;99.90;;;;;;5039798;28;39729;-77
2022/06/26 04:33:25;;;;;;;18.13;9.02;;;15.30;99.90;;;;;;5038098;28;40451;-76
2022/06/26 04:35:51;;;;;;;17.67;9.68;;;15.20;99.90;;;;;;5058251;28;39235;-77
2022/06/26 04:38:17;;;;;;;16.60;8.70;;;15.30;99.90;;;;;;5059097;27;37921;-76
2022/06/26 04:40:43;;;;;;;12.13;8.63;;;15.30;99.90;;;;;;5057362;28;38697;-76
2022/06/26 04:43:10;;;;;;;13.18;9.05;;;15.30;99.90;;;;;;5048888;27;36112;-77
2022/06/26 04:45:36;;;;;;;15.35;8.40;;;15.30;99.90;;;;;;5057696;28;36858;-76
2022/06/26 04:48:03;;;;;;;16.70;8.82;;;15.30;99.90;;;;;;5052737;27;37833;-77
2022/06/26 04:50:29;;;;;;;13.57;8.60;;;15.30;99.90;;;;;;5044954;28;39390;-77
2022/06/26 04:52:55;;;;;;;16.98;8.18;;;15.30;99.90;;;;;;5049267;28;39614;-77
2022/06/26 04:55:21;;;;;;;15.38;8.25;;;15.40;99.90;;;;;;5059732;27;38277;-76
2022/06/26 04:57:47;;;;;;;16.15;8.77;;;15.50;99.90;;;;;;5057272;28;38749;-77
2022/06/26 05:00:14;;;;;;;12.73;8.20;;;15.60;99.90;;;;;;5051300;27;37607;-77
2022/06/26 05:02:40;;;;;;;14.20;9.05;;;15.60;99.90;;;;;;5063788;27;38417;-77
2022/06/26 05:05:07;;;;;;;10.65;7.32;;;15.60;99.90;;;;;;5050456;28;39999;-77
2022/06/26 05:07:34;;;;;;;12.13;7.45;;;15.80;99.90;;;;;;5038243;28;37238;-77
2022/06/26 05:10:01;;;;;;;13.00;7.60;;;15.90;99.90;;;;;;5066236;27;38841;-77
2022/06/26 05:12:27;;;;;;;14.07;6.85;;;16.20;99.90;;;;;;5051037;27;47695;-76
2022/06/26 05:14:53;;;;;;;10.70;6.85;;;16.30;99.90;;;;;;5059279;28;39434;-76
2022/06/26 05:17:19;;;;;;;10.50;6.72;;;16.30;99.90;;;;;;5059586;27;37340;-77
2022/06/26 05:19:46;;;;;;;11.40;6.53;;;16.30;99.90;;;;;;5047098;28;40877;-76
2022/06/26 05:22:12;;;;;;;9.93;6.35;;;16.40;99.90;;;;;;5043395;28;39924;-76
2022/06/26 05:24:38;;;;;;;11.98;6.63;;;16.60;99.90;;;;;;5052042;28;38615;-77
2022/06/26 05:27:04;;;;;;;9.65;5.15;;;16.60;99.90;;;;;;5052401;27;37697;-77
2022/06/26 05:29:31;;;;;;;10.80;6.05;;;16.50;99.90;;;;;;5052564;28;40224;-76
2022/06/26 05:31:57;;;;;;;10.15;5.88;;;16.50;99.90;;;;;;5041975;28;38525;-77
2022/06/26 05:34:23;;;;;;;7.95;5.40;;;16.50;99.90;;;;;;5051810;28;39730;-77
2022/06/26 05:36:50;;;;;;;8.15;5.13;;;16.50;99.90;;;;;;5055107;27;37969;-77
2022/06/26 05:39:16;;;;;;;9.10;4.78;;;16.30;99.90;;;;;;5060813;27;37750;-77
2022/06/26 05:41:42;;;;;;;13.48;5.35;;;16.40;99.90;;;;;;5046583;28;39530;-77
2022/06/26 05:44:08;;;;;;;9.50;4.82;;;16.30;99.90;;;;;;5050924;27;39236;-76
2022/06/26 05:46:35;;;;;;;10.00;4.88;;;16.30;99.90;;;;;;5072176;27;34723;-76
2022/06/26 05:49:01;;;;;;;7.05;4.90;;;16.30;99.90;;;;;;5042262;28;40650;-76
2022/06/26 05:51:27;;;;;;;6.75;4.07;;;16.40;99.90;;;;;;5041044;27;48842;-78
2022/06/26 05:53:53;;;;;;;8.25;4.55;;;16.30;99.90;;;;;;5038752;27;40356;-76
2022/06/26 05:56:19;;;;;;;7.38;4.20;;;16.30;99.90;;;;;;5036888;28;39238;-78
2022/06/26 05:58:45;;;;;;;6.53;3.58;;;16.30;99.90;;;;;;5038490;28;39951;-77
2022/06/26 06:01:11;;;;;;;9.13;3.90;;;16.30;99.90;;;;;;5038423;28;39536;-77
2022/06/26 06:03:38;;;;;;;6.70;4.30;;;16.30;99.90;;;;;;5034802;28;40196;-76
2022/06/26 06:06:04;;;;;;;8.93;3.92;;;16.40;99.90;;;;;;5043907;28;37780;-77
2022/06/26 06:08:30;;;;;;;5.70;4.00;;;16.40;99.90;;;;;;5046540;28;40581;-77
2022/06/26 06:10:56;;;;;;;9.07;4.13;;;16.50;99.90;;;;;;5043296;28;37983;-77
2022/06/26 06:13:22;;;;;;;7.97;3.65;;;16.60;99.90;;;;;;5043328;28;37463;-77
2022/06/26 06:15:48;;;;;;;6.55;3.35;;;16.70;99.90;;;;;;5042707;28;37580;-77
2022/06/26 06:18:14;;;;;;;8.10;4.03;;;16.80;99.90;;;;;;5044627;28;37715;-76
2022/06/26 06:20:42;;;;;;;5.32;3.45;;;17.10;99.90;;;;;;5037124;28;38120;-77
2022/06/26 06:23:08;;;;;;;7.78;3.05;;;17.10;99.90;;;;;;5038071;28;40242;-76
2022/06/26 06:25:35;;;;;;;7.10;3.08;;;17.20;99.90;;;;;;5042475;28;38167;-77
2022/06/26 06:28:01;;;;;;;3.50;2.20;;;17.10;99.90;;;;;;5040455;28;40618;-77
2022/06/26 06:30:27;;;;;;;4.50;2.22;;;17.10;99.90;;;;;;5070991;28;38945;-77
2022/06/26 06:32:54;;;;;;;3.90;2.10;;;17.10;99.90;;;;;;5088618;27;38987;-77
2022/06/26 06:35:20;;;;;;;3.75;2.50;;;17.00;99.90;;;;;;5041937;28;37567;-77
2022/06/26 06:37:46;;;;;;;6.18;2.75;;;16.90;99.90;;;;;;5043974;28;38788;-77
2022/06/26 06:40:14;;;;;;;5.00;2.40;;;16.90;99.90;;;;;;5047325;28;39182;-77
2022/06/26 06:42:41;;;;;;;3.42;2.33;;;17.20;99.90;;;;;;5056218;27;39990;-77
2022/06/26 06:45:08;;;;;;;4.60;2.40;;;17.60;99.90;;;;;;5050686;28;36211;-77
2022/06/26 06:47:35;;;;;;;6.25;2.40;;;17.90;99.90;;;;;;5048872;28;37688;-77
2022/06/26 06:50:03;;;;;;;4.50;1.95;;;17.80;99.90;;;;;;5064049;27;38968;-77
2022/06/26 06:52:29;;;;;;;4.97;2.22;;;17.80;99.90;;;;;;5052182;28;38196;-77
2022/06/26 06:54:55;;;;;;;3.92;2.13;;;17.80;99.90;;;;;;5061290;28;38403;-76
2022/06/26 06:57:21;;;;;;;4.45;2.03;;;17.80;99.90;;;;;;5049920;28;38526;-76
2022/06/26 06:59:48;;;;;;;4.68;1.80;;;17.70;99.90;;;;;;5057046;28;37493;-76
2022/06/26 07:02:14;;;;;;;3.13;1.77;;;17.70;99.90;;;;;;5042060;28;38705;-76
2022/06/26 07:04:40;;;;;;;5.78;1.95;;;17.80;99.90;;;;;;5052894;28;38113;-76
2022/06/26 07:07:06;;;;;;;4.18;1.80;;;17.90;99.90;;;;;;5054297;28;39218;-75
2022/06/26 07:09:32;;;;;;;4.57;1.77;;;18.20;99.90;;;;;;5047997;28;39680;-74
2022/06/26 07:11:58;;;;;;;4.80;1.70;;;18.20;99.90;;;;;;5040049;28;38618;-74
2022/06/26 07:14:25;;;;;;;4.97;1.70;;;18.20;99.90;;;;;;5063624;27;37289;-74
2022/06/26 07:16:51;;;;;;;5.60;1.50;;;18.30;99.90;;;;;;5062501;28;39334;-74
2022/06/26 07:19:17;;;;;;;3.15;1.27;;;18.40;99.90;;;;;;5065723;27;38896;-74
2022/06/26 07:21:43;;;;;;;3.95;1.45;;;18.70;99.90;;;;;;5092640;27;38734;-74
2022/06/26 07:24:11;;;;;;;4.75;2.15;;;18.80;99.90;;;;;;5091832;27;38535;-74
2022/06/26 07:26:38;;;;;;;2.50;1.05;;;19.10;99.90;;;;;;5060094;28;40154;-74
2022/06/26 07:29:04;;;;;;;3.10;1.38;;;19.20;99.90;;;;;;5058545;27;40684;-75
2022/06/26 07:31:31;;;;;;;2.65;1.30;;;19.00;99.90;;;;;;5066358;27;38396;-74
2022/06/26 07:34:12;;;;;;;4.95;2.10;;;19.40;99.90;;;;;;5060246;28;38902;-74
2022/06/26 07:36:46;;;;;;;3.00;1.33;;;19.40;99.90;;;;;;5061699;28;47481;-74
2022/06/26 07:39:13;;;;;;;5.65;1.80;;;19.80;99.90;;;;;;5063644;28;38710;-74
2022/06/26 07:41:41;;;;;;;4.85;1.67;;;19.60;99.90;;;;;;5064686;27;38673;-74
2022/06/26 07:44:07;;;;;;;3.78;1.77;;;19.60;99.90;;;;;;5058437;27;37867;-74
2022/06/26 07:46:34;;;;;;;4.88;1.30;;;19.70;99.90;;;;;;5065170;27;38790;-74
2022/06/26 07:49:01;;;;;;;3.35;1.45;;;19.90;99.90;;;;;;5060155;27;39330;-73
2022/06/26 07:51:28;;;;;;;3.53;1.80;;;20.20;99.90;;;;;;5060379;27;48836;-74
2022/06/26 07:53:54;;;;;;;6.05;1.80;;;20.40;99.90;;;;;;5061549;27;37400;-74
2022/06/26 07:56:20;;;;;;;3.17;1.23;;;20.40;99.90;;;;;;5059041;27;38780;-74
2022/06/26 07:58:46;;;;;;;1.45;0.90;;;20.20;99.90;;;;;;5063512;27;39527;-75
2022/06/26 08:01:13;;;;;;;3.05;1.27;;;20.10;99.90;;;;;;5058665;28;40429;-74
2022/06/26 08:03:39;;;;;;;3.42;1.27;;;20.30;99.90;;;;;;5057604;27;37737;-74
2022/06/26 08:06:05;;;;;;;2.33;1.02;;;20.50;99.90;;;;;;5058050;28;39313;-74
2022/06/26 08:08:31;;;;;;;3.53;1.73;;;20.60;99.90;;;;;;5061608;27;39651;-74
2022/06/26 08:10:57;;;;;;;4.28;1.05;;;20.60;99.90;;;;;;5064736;27;38699;-73
2022/06/26 08:13:23;;;;;;;2.85;1.38;;;20.90;99.90;;;;;;5062908;27;37358;-74
2022/06/26 08:15:49;;;;;;;3.05;1.08;;;21.10;99.90;;;;;;5063853;27;38703;-74
2022/06/26 08:18:15;;;;;;;2.55;1.40;;;20.60;99.90;;;;;;5059944;27;39475;-74
2022/06/26 08:20:42;;;;;;;1.63;1.05;;;20.70;99.90;;;;;;5060617;28;40327;-74
2022/06/26 08:23:08;;;;;;;2.25;1.27;;;20.50;99.90;;;;;;5061631;27;37133;-73
2022/06/26 08:25:34;;;;;;;2.88;1.33;;;20.60;99.90;;;;;;5101466;27;40362;-74
2022/06/26 08:28:00;;;;;;;2.38;1.23;;;20.50;99.90;;;;;;5046079;28;38834;-74
2022/06/26 08:30:26;;;;;;;3.38;1.60;;;20.20;99.90;;;;;;5040838;28;40171;-73
2022/06/26 08:32:56;;;;;;;3.95;1.58;;;20.00;99.90;;;;;;5035763;28;37775;-73
2022/06/26 08:35:22;;;;;;;5.03;1.67;;;19.70;99.90;;;;;;5037680;28;38944;-74
2022/06/26 08:37:49;;;;;;;3.08;1.48;;;19.70;99.90;;;;;;5036812;28;38703;-74
2022/06/26 08:40:16;;;;;;;5.55;1.58;;;20.00;99.90;;;;;;5035333;28;38226;-75
2022/06/26 08:42:44;;;;;;;2.58;1.30;;;20.10;99.90;;;;;;5052300;28;40091;-74
2022/06/26 08:45:12;;;;;;;4.43;1.30;;;20.40;99.90;;;;;;5059635;27;39896;-73
2022/06/26 08:47:40;;;;;;;5.35;1.98;;;19.90;99.90;;;;;;5040685;28;36887;-75
2022/06/26 08:50:08;;;;;;;4.15;1.25;;;19.70;99.90;;;;;;5037033;28;39201;-74
2022/06/26 08:52:36;;;;;;;3.00;1.30;;;19.50;99.90;;;;;;5038688;28;37936;-75
2022/06/26 08:55:03;;;;;;;4.07;1.48;;;19.70;99.90;;;;;;5036311;28;38628;-75
2022/06/26 08:57:30;;;;;;;2.03;1.25;;;20.00;99.90;;;;;;5054225;28;47272;-75
2022/06/26 08:59:56;;;;;;;2.17;1.23;;;20.20;99.90;;;;;;5048962;27;39362;-74
2022/06/26 09:02:22;;;;;;;2.05;1.50;;;20.50;99.90;;;;;;5052718;28;37257;-75
2022/06/26 09:04:48;;;;;;;3.63;1.70;;;20.80;99.90;;;;;;5042017;28;39704;-75
2022/06/26 09:07:14;;;;;;;5.47;1.23;;;20.90;99.90;;;;;;5036566;28;41836;-75
2022/06/26 09:09:40;;;;;;;4.45;1.23;;;20.60;99.90;;;;;;5055099;28;38986;-75
2022/06/26 09:12:07;;;;;;;3.70;1.15;;;20.80;99.90;;;;;;5042416;28;37073;-75
2022/06/26 09:14:34;;;;;;;2.53;1.30;;;20.60;99.90;;;;;;5040265;28;39936;-75
2022/06/26 09:17:01;;;;;;;3.25;1.00;;;20.20;99.90;;;;;;5042448;28;40592;-74
2022/06/26 09:19:33;;;;;;;3.78;1.05;;;20.30;99.90;;;;;;5033297;28;48627;-74
2022/06/26 09:22:07;;;;;;;3.13;1.30;;;20.40;99.90;;;;;;5073117;28;37391;-75
2022/06/26 09:24:36;;;;;;;4.72;1.08;;;20.40;99.90;;;;;;5059890;28;48388;-75
2022/06/26 09:27:14;;;;;;;5.75;1.83;;;20.80;99.90;;;;;;5048369;28;39744;-76
2022/06/26 09:29:41;;;;;;;5.22;2.00;;;20.90;99.90;;;;;;5035889;28;40262;-75
2022/06/26 09:32:09;;;;;;;3.00;2.00;;;20.00;99.90;;;;;;5054828;28;37333;-75
2022/06/26 09:34:36;;;;;;;4.57;1.80;;;19.90;99.90;;;;;;5044485;28;38171;-74
2022/06/26 09:37:05;;;;;;;2.60;1.45;;;20.20;99.90;;;;;;5042813;28;37731;-75
2022/06/26 09:39:32;;;;;;;5.65;1.55;;;20.90;99.90;;;;;;5039651;28;38273;-76
2022/06/26 09:42:31;;;;;;;2.28;1.80;;;21.20;99.90;;;;;;5068914;28;37567;-75
2022/06/26 09:44:59;;;;;;;2.78;1.55;;;20.70;99.90;;;;;;5035786;28;48745;-75
2022/06/26 09:47:30;;;;;;;2.75;1.50;;;20.60;99.90;;;;;;5055263;28;39322;-75
2022/06/26 09:49:59;;;;;;;6.03;2.20;;;20.40;99.90;;;;;;5055905;28;37607;-75
2022/06/26 09:52:28;;;;;;;4.43;1.42;;;20.40;99.90;;;;;;5081531;27;38970;-75
2022/06/26 09:54:55;;;;;;;4.70;1.63;;;20.60;99.90;;;;;;5043808;28;39513;-75
2022/06/26 09:57:22;;;;;;;3.67;1.90;;;20.60;99.90;;;;;;5054893;27;40657;-74
2022/06/26 09:59:48;;;;;;;2.85;1.88;;;20.40;99.90;;;;;;5060314;27;38587;-74
2022/06/26 10:07:53;;;;;;;4.65;1.52;;;20.10;99.90;;;;;;5060592;28;49291;-75
2022/06/26 10:10:24;;;;;;;4.18;1.60;;;19.80;99.90;;;;;;5051785;28;38719;-74
2022/06/26 10:13:08;;;;;;;6.10;2.40;;;19.90;99.90;;;;;;5065097;28;37580;-74
2022/06/26 10:15:49;;;;;;;5.75;2.15;;;20.00;99.90;;;;;;5041201;28;47314;-74
2022/06/26 10:18:39;;;;;;;4.20;2.28;;;20.10;99.90;;;;;;5041344;28;39822;-74
2022/06/26 10:21:09;;;;;;;2.53;1.73;;;20.10;99.90;;;;;;5046245;28;38719;-74
2022/06/26 10:23:36;;;;;;;8.10;2.20;;;20.00;99.90;;;;;;5036921;28;37299;-76
2022/06/26 10:26:18;;;;;;;4.53;1.92;;;20.00;99.90;;;;;;5047257;28;40647;-74
2022/06/26 10:29:00;;;;;;;4.28;2.00;;;20.10;99.90;;;;;;5034596;28;39847;-74
2022/06/26 10:31:47;;;;;;;3.22;1.90;;;20.00;99.90;;;;;;5051527;28;40016;-74
2022/06/26 10:34:21;;;;;;;5.47;2.67;;;20.10;99.90;;;;;;5061831;27;38192;-74
2022/06/26 10:37:09;;;;;;;5.50;2.50;;;20.00;99.90;;;;;;5059112;27;38851;-74
2022/06/26 10:39:42;;;;;;;4.35;2.45;;;20.00;99.90;;;;;;5067234;28;47216;-74
2022/06/26 10:45:11;;;;;;;6.53;3.28;;;20.30;99.90;;;;;;5062487;27;38671;-75
2022/06/26 10:47:45;;;;;;;10.45;3.38;;;19.70;99.90;;;;;;5055889;28;48530;-75
2022/06/26 10:50:24;;;;;;;7.60;2.90;;;19.80;99.90;;;;;;5057797;27;39384;-74
2022/06/26 10:52:51;;;;;;;6.50;3.30;;;20.10;99.90;;;;;;5055152;28;36204;-76
2022/06/26 10:55:17;;;;;;;5.45;3.00;;;20.00;99.90;;;;;;5048296;28;37914;-75
2022/06/26 10:57:43;;;;;;;6.70;3.03;;;20.20;99.90;;;;;;5035515;28;41270;-75
2022/06/26 11:00:12;;;;;;;5.88;3.10;;;20.40;99.90;;;;;;5050253;28;40099;-75
2022/06/26 11:02:41;;;;;;;5.35;3.60;;;20.40;99.90;;;;;;5036095;28;39080;-75
2022/06/26 11:05:09;;;;;;;5.63;4.10;;;20.10;99.90;;;;;;5035733;28;37599;-75
2022/06/26 11:07:49;;;;;;;6.80;3.33;;;19.90;99.90;;;;;;5032451;28;38815;-75
2022/06/26 11:10:20;;;;;;;5.03;3.53;;;20.00;99.90;;;;;;5060046;27;40367;-75
2022/06/26 11:12:49;;;;;;;4.57;3.00;;;20.10;99.90;;;;;;5058999;28;38321;-75
2022/06/26 11:15:27;;;;;;;5.57;2.88;;;20.30;99.90;;;;;;5083693;27;35756;-76
2022/06/26 11:17:58;;;;;;;4.57;2.80;;;20.60;99.90;;;;;;5062850;27;39766;-75
2022/06/26 11:23:13;;;;;;;4.88;2.80;;;20.80;99.90;;;;;;5035324;28;39229;-75
2022/06/26 11:25:41;;;;;;;6.43;3.00;;;20.70;99.90;;;;;;5035644;28;37599;-75
2022/06/26 11:28:10;;;;;;;8.40;3.10;;;20.90;99.90;;;;;;5037802;28;39022;-75
2022/06/26 11:30:38;;;;;;;8.57;5.00;;;21.40;99.90;;;;;;5036213;28;39856;-76
2022/06/26 11:33:05;;;;;;;7.18;5.18;;;21.80;99.90;;;;;;5033567;28;39893;-75
2022/06/26 11:35:34;;;;;;;8.13;5.95;;;22.10;99.90;;;;;;5037165;28;37982;-78
2022/06/26 11:38:09;;;;;;;7.10;6.45;;;22.50;99.90;;;;;;5037540;28;41169;-75
2022/06/26 11:40:36;;;;;;;9.15;6.93;;;21.90;99.90;;;;;;5056739;28;47271;-76
2022/06/26 11:43:02;;;;;;;9.02;6.90;;;21.80;99.90;;;;;;5040177;28;39328;-75
2022/06/26 11:45:31;;;;;;;13.45;7.40;;;21.70;99.90;;;;;;5044114;28;47209;-74
2022/06/26 11:48:00;;;;;;;12.82;9.35;;;22.00;99.90;;;;;;5057276;28;38549;-74
2022/06/26 11:50:31;;;;;;;10.32;9.02;;;22.10;99.90;;;;;;5058296;27;38829;-75
2022/06/26 11:52:58;;;;;;;9.25;7.38;;;21.30;99.90;;;;;;5051933;27;39220;-75
2022/06/26 11:55:25;;;;;;;7.93;7.15;;;21.60;99.90;;;;;;5056495;27;36868;-75
2022/06/26 11:57:57;;;;;;;7.57;5.75;;;21.10;99.90;;;;;;5053059;27;38877;-76
2022/06/26 12:00:24;;;;;;;8.48;4.03;;;21.00;99.90;;;;;;5040371;28;40529;-76
2022/06/26 12:02:50;;;;;;;8.02;4.15;;;21.10;99.90;;;;;;5036209;28;39679;-76
2022/06/26 12:05:24;;;;;;;8.13;4.90;;;21.50;99.90;;;;;;5042577;28;38214;-76
2022/06/26 12:07:52;;;;;;;8.00;4.13;;;21.80;99.90;;;;;;5054441;28;38896;-76
2022/06/26 12:10:30;;;;;;;10.50;5.68;;;22.00;99.90;;;;;;5058555;28;39142;-76
2022/06/26 12:12:56;;;;;;;7.78;4.90;;;22.20;99.90;;;;;;5061922;28;38616;-75
2022/06/26 12:15:24;;;;;;;6.50;5.07;;;22.40;99.90;;;;;;5058176;28;38221;-75
2022/06/26 12:17:56;;;;;;;4.05;3.63;;;22.50;99.90;;;;;;5058526;28;37777;-75
2022/06/26 12:20:23;;;;;;;5.13;3.42;;;22.30;99.90;;;;;;5054359;28;37940;-76
2022/06/26 12:22:52;;;;;;;4.65;3.10;;;22.40;99.90;;;;;;5055363;28;39963;-76
2022/06/26 12:25:32;;;;;;;5.93;3.10;;;22.10;99.90;;;;;;5042515;28;37954;-76
2022/06/26 12:28:00;;;;;;;8.35;4.00;;;21.30;99.90;;;;;;5035172;28;39979;-76
2022/06/26 12:30:30;;;;;;;9.32;4.65;;;21.20;99.90;;;;;;5030397;28;39698;-76
2022/06/26 12:32:57;;;;;;;11.05;3.50;;;21.30;99.90;;;;;;5034696;28;38475;-74
2022/06/26 12:35:25;;;;;;;4.18;2.60;;;21.40;99.90;;;;;;5041216;28;38739;-74
2022/06/26 12:37:51;;;;;;;6.07;2.75;;;21.80;99.90;;;;;;5058938;28;37631;-74
2022/06/26 12:40:18;;;;;;;5.80;3.15;;;22.00;99.90;;;;;;5040662;28;39654;-77
2022/06/26 12:42:44;;;;;;;5.97;3.25;;;22.20;99.90;;;;;;5055453;28;39786;-74
2022/06/26 12:45:10;;;;;;;4.80;2.78;;;21.60;99.90;;;;;;5040192;28;37474;-75
2022/06/26 12:47:37;;;;;;;5.93;3.35;;;21.60;99.90;;;;;;5039573;28;40821;-74
2022/06/26 12:50:05;;;;;;;5.80;2.53;;;22.10;99.90;;;;;;5035369;28;39736;-74
2022/06/26 12:52:33;;;;;;;5.40;1.90;;;22.40;99.90;;;;;;5038973;28;20049;-75
2022/06/26 12:55:03;;;;;;;6.53;1.80;;;22.60;99.90;;;;;;5038716;28;38309;-75